sensor_id;sensor_type;location;lat;lon;timestamp;P1;durP1;ratioP1;P2;durP2;ratioP2
9128;SDS011;4599;50.906;6.786;2023-02-14T00:00:50;12.00;;;8.70;;
9128;SDS011;4599;50.906;6.786;2023-02-14T00:04:53;13.90;;;9.90;;
9128;SDS011;4599;50.906;6.786;2023-02-14T00:08:55;14.63;;;10.13;;
9128;SDS011;4599;50.906;6.786;2023-02-14T00:12:56;15.77;;;10.23;;
9128;SDS011;4599;50.906;6.786;2023-02-14T00:16:57;13.30;;;9.90;;
9128;SDS011;4599;50.906;6.786;2023-02-14T00:21:00;13.13;;;9.57;;
9128;SDS011;4599;50.906;6.786;2023-02-14T00:25:02;13.20;;;9.60;;
9128;SDS011;4599;50.906;6.786;2023-02-14T00:29:04;17.10;;;9.83;;
9128;SDS011;4599;50.906;6.786;2023-02-14T00:33:06;14.30;;;9.27;;
9128;SDS011;4599;50.906;6.786;2023-02-14T00:37:09;12.83;;;8.27;;
9128;SDS011;4599;50.906;6.786;2023-02-14T00:41:11;20.80;;;8.60;;
9128;SDS011;4599;50.906;6.786;2023-02-14T00:45:12;12.50;;;8.37;;
9128;SDS011;4599;50.906;6.786;2023-02-14T00:49:14;15.20;;;8.47;;
9128;SDS011;4599;50.906;6.786;2023-02-14T00:53:16;14.60;;;8.53;;
9128;SDS011;4599;50.906;6.786;2023-02-14T00:57:20;9.37;;;7.93;;
9128;SDS011;4599;50.906;6.786;2023-02-14T01:01:21;13.50;;;8.27;;
9128;SDS011;4599;50.906;6.786;2023-02-14T01:05:23;11.13;;;8.23;;
9128;SDS011;4599;50.906;6.786;2023-02-14T01:09:25;12.30;;;8.10;;
9128;SDS011;4599;50.906;6.786;2023-02-14T01:13:27;11.43;;;7.97;;
9128;SDS011;4599;50.906;6.786;2023-02-14T01:17:28;12.73;;;7.67;;
9128;SDS011;4599;50.906;6.786;2023-02-14T01:21:30;10.57;;;7.43;;
9128;SDS011;4599;50.906;6.786;2023-02-14T01:25:36;13.07;;;8.10;;
9128;SDS011;4599;50.906;6.786;2023-02-14T01:29:38;12.90;;;8.87;;
9128;SDS011;4599;50.906;6.786;2023-02-14T01:33:40;13.97;;;9.40;;
9128;SDS011;4599;50.906;6.786;2023-02-14T01:37:42;12.87;;;9.00;;
9128;SDS011;4599;50.906;6.786;2023-02-14T01:41:46;16.33;;;10.03;;
9128;SDS011;4599;50.906;6.786;2023-02-14T01:45:48;18.40;;;8.83;;
9128;SDS011;4599;50.906;6.786;2023-02-14T01:49:50;13.60;;;8.03;;
9128;SDS011;4599;50.906;6.786;2023-02-14T01:53:54;10.27;;;7.93;;
9128;SDS011;4599;50.906;6.786;2023-02-14T01:58:00;10.97;;;8.03;;
9128;SDS011;4599;50.906;6.786;2023-02-14T02:02:04;10.23;;;7.87;;
9128;SDS011;4599;50.906;6.786;2023-02-14T02:06:08;10.83;;;7.13;;
9128;SDS011;4599;50.906;6.786;2023-02-14T02:10:13;9.27;;;7.30;;
9128;SDS011;4599;50.906;6.786;2023-02-14T02:14:17;10.00;;;7.83;;
9128;SDS011;4599;50.906;6.786;2023-02-14T02:18:22;13.17;;;7.20;;
9128;SDS011;4599;50.906;6.786;2023-02-14T02:22:40;10.40;;;6.53;;
9128;SDS011;4599;50.906;6.786;2023-02-14T02:36:29;9.23;;;6.77;;
9128;SDS011;4599;50.906;6.786;2023-02-14T02:40:52;12.33;;;7.07;;
9128;SDS011;4599;50.906;6.786;2023-02-14T02:45:05;14.57;;;7.07;;
9128;SDS011;4599;50.906;6.786;2023-02-14T02:49:13;11.50;;;7.33;;
9128;SDS011;4599;50.906;6.786;2023-02-14T02:53:25;10.70;;;6.97;;
9128;SDS011;4599;50.906;6.786;2023-02-14T02:57:33;8.93;;;6.80;;
9128;SDS011;4599;50.906;6.786;2023-02-14T03:01:39;9.00;;;6.60;;
9128;SDS011;4599;50.906;6.786;2023-02-14T03:05:41;10.23;;;6.87;;
9128;SDS011;4599;50.906;6.786;2023-02-14T03:09:51;10.57;;;7.73;;
9128;SDS011;4599;50.906;6.786;2023-02-14T03:13:58;12.83;;;7.17;;
9128;SDS011;4599;50.906;6.786;2023-02-14T03:18:16;12.07;;;7.40;;
9128;SDS011;4599;50.906;6.786;2023-02-14T03:22:41;11.03;;;6.90;;
9128;SDS011;4599;50.906;6.786;2023-02-14T03:26:50;11.07;;;7.37;;
9128;SDS011;4599;50.906;6.786;2023-02-14T03:31:01;12.00;;;7.70;;
9128;SDS011;4599;50.906;6.786;2023-02-14T03:35:11;10.77;;;7.00;;
9128;SDS011;4599;50.906;6.786;2023-02-14T03:39:19;9.73;;;7.50;;
9128;SDS011;4599;50.906;6.786;2023-02-14T03:43:30;11.77;;;7.57;;
9128;SDS011;4599;50.906;6.786;2023-02-14T03:47:35;10.13;;;7.73;;
9128;SDS011;4599;50.906;6.786;2023-02-14T03:51:40;10.63;;;7.60;;
9128;SDS011;4599;50.906;6.786;2023-02-14T03:55:49;11.43;;;7.43;;
9128;SDS011;4599;50.906;6.786;2023-02-14T03:59:59;9.83;;;6.97;;
9128;SDS011;4599;50.906;6.786;2023-02-14T04:04:01;12.53;;;7.90;;
9128;SDS011;4599;50.906;6.786;2023-02-14T04:08:06;10.77;;;8.20;;
9128;SDS011;4599;50.906;6.786;2023-02-14T04:12:08;14.60;;;8.57;;
9128;SDS011;4599;50.906;6.786;2023-02-14T04:16:11;14.10;;;8.80;;
9128;SDS011;4599;50.906;6.786;2023-02-14T04:20:12;10.80;;;8.30;;
9128;SDS011;4599;50.906;6.786;2023-02-14T04:24:14;11.97;;;8.70;;
9128;SDS011;4599;50.906;6.786;2023-02-14T04:28:15;11.20;;;8.50;;
9128;SDS011;4599;50.906;6.786;2023-02-14T04:32:19;11.50;;;7.90;;
9128;SDS011;4599;50.906;6.786;2023-02-14T04:36:22;12.53;;;7.83;;
9128;SDS011;4599;50.906;6.786;2023-02-14T04:40:23;11.07;;;7.80;;
9128;SDS011;4599;50.906;6.786;2023-02-14T04:44:25;11.97;;;8.07;;
9128;SDS011;4599;50.906;6.786;2023-02-14T04:48:28;16.27;;;9.43;;
9128;SDS011;4599;50.906;6.786;2023-02-14T04:52:29;13.27;;;9.00;;
9128;SDS011;4599;50.906;6.786;2023-02-14T04:56:31;13.97;;;9.27;;
9128;SDS011;4599;50.906;6.786;2023-02-14T05:00:32;16.53;;;9.17;;
9128;SDS011;4599;50.906;6.786;2023-02-14T05:04:35;15.60;;;9.13;;
9128;SDS011;4599;50.906;6.786;2023-02-14T05:08:36;14.87;;;9.80;;
9128;SDS011;4599;50.906;6.786;2023-02-14T05:12:38;15.27;;;9.43;;
9128;SDS011;4599;50.906;6.786;2023-02-14T05:16:39;13.40;;;9.70;;
9128;SDS011;4599;50.906;6.786;2023-02-14T05:20:42;15.73;;;9.77;;
9128;SDS011;4599;50.906;6.786;2023-02-14T05:24:44;18.27;;;10.10;;
9128;SDS011;4599;50.906;6.786;2023-02-14T05:28:45;14.50;;;10.63;;
9128;SDS011;4599;50.906;6.786;2023-02-14T05:32:48;13.43;;;9.93;;
9128;SDS011;4599;50.906;6.786;2023-02-14T05:36:51;14.23;;;9.67;;
9128;SDS011;4599;50.906;6.786;2023-02-14T05:40:52;14.47;;;9.83;;
9128;SDS011;4599;50.906;6.786;2023-02-14T05:44:54;17.53;;;9.93;;
9128;SDS011;4599;50.906;6.786;2023-02-14T05:48:55;17.40;;;12.52;;
9128;SDS011;4599;50.906;6.786;2023-02-14T05:52:58;16.03;;;10.70;;
9128;SDS011;4599;50.906;6.786;2023-02-14T05:57:00;14.97;;;11.20;;
9128;SDS011;4599;50.906;6.786;2023-02-14T06:01:02;18.27;;;11.97;;
9128;SDS011;4599;50.906;6.786;2023-02-14T06:05:04;19.70;;;12.60;;
9128;SDS011;4599;50.906;6.786;2023-02-14T06:09:07;22.90;;;11.60;;
9128;SDS011;4599;50.906;6.786;2023-02-14T06:13:08;17.37;;;10.60;;
9128;SDS011;4599;50.906;6.786;2023-02-14T06:17:10;15.07;;;10.07;;
9128;SDS011;4599;50.906;6.786;2023-02-14T06:21:12;16.13;;;11.47;;
9128;SDS011;4599;50.906;6.786;2023-02-14T06:25:42;23.03;;;13.43;;
9128;SDS011;4599;50.906;6.786;2023-02-14T06:29:43;21.90;;;13.97;;
9128;SDS011;4599;50.906;6.786;2023-02-14T06:33:45;25.73;;;16.00;;
9128;SDS011;4599;50.906;6.786;2023-02-14T06:37:46;23.20;;;14.67;;
9128;SDS011;4599;50.906;6.786;2023-02-14T06:41:49;23.40;;;14.97;;
9128;SDS011;4599;50.906;6.786;2023-02-14T06:45:51;23.67;;;15.53;;
9128;SDS011;4599;50.906;6.786;2023-02-14T06:49:52;23.63;;;15.70;;
9128;SDS011;4599;50.906;6.786;2023-02-14T06:53:53;24.63;;;15.37;;
9128;SDS011;4599;50.906;6.786;2023-02-14T06:57:56;27.67;;;16.57;;
9128;SDS011;4599;50.906;6.786;2023-02-14T07:01:58;27.63;;;16.17;;
9128;SDS011;4599;50.906;6.786;2023-02-14T07:05:59;28.60;;;17.00;;
9128;SDS011;4599;50.906;6.786;2023-02-14T07:10:00;27.27;;;16.40;;
9128;SDS011;4599;50.906;6.786;2023-02-14T07:14:03;26.90;;;17.33;;
9128;SDS011;4599;50.906;6.786;2023-02-14T07:18:04;26.70;;;17.03;;
9128;SDS011;4599;50.906;6.786;2023-02-14T07:22:06;25.87;;;16.43;;
9128;SDS011;4599;50.906;6.786;2023-02-14T07:26:07;27.93;;;17.13;;
9128;SDS011;4599;50.906;6.786;2023-02-14T07:30:11;27.80;;;17.83;;
9128;SDS011;4599;50.906;6.786;2023-02-14T07:34:13;33.83;;;17.97;;
9128;SDS011;4599;50.906;6.786;2023-02-14T07:38:14;27.47;;;17.30;;
9128;SDS011;4599;50.906;6.786;2023-02-14T07:42:16;30.50;;;18.03;;
9128;SDS011;4599;50.906;6.786;2023-02-14T07:46:18;27.63;;;18.43;;
9128;SDS011;4599;50.906;6.786;2023-02-14T07:50:20;27.90;;;17.97;;
9128;SDS011;4599;50.906;6.786;2023-02-14T07:54:23;31.07;;;18.57;;
9128;SDS011;4599;50.906;6.786;2023-02-14T07:58:24;34.37;;;19.53;;
9128;SDS011;4599;50.906;6.786;2023-02-14T08:02:27;31.43;;;20.17;;
9128;SDS011;4599;50.906;6.786;2023-02-14T08:06:28;31.97;;;19.33;;
9128;SDS011;4599;50.906;6.786;2023-02-14T08:10:30;30.43;;;18.87;;
9128;SDS011;4599;50.906;6.786;2023-02-14T08:14:31;30.93;;;20.23;;
9128;SDS011;4599;50.906;6.786;2023-02-14T08:18:35;30.40;;;19.50;;
9128;SDS011;4599;50.906;6.786;2023-02-14T08:22:37;27.80;;;18.90;;
9128;SDS011;4599;50.906;6.786;2023-02-14T08:26:38;30.57;;;19.00;;
9128;SDS011;4599;50.906;6.786;2023-02-14T08:30:40;30.80;;;18.87;;
9128;SDS011;4599;50.906;6.786;2023-02-14T08:34:43;34.10;;;20.20;;
9128;SDS011;4599;50.906;6.786;2023-02-14T08:38:45;28.00;;;17.43;;
9128;SDS011;4599;50.906;6.786;2023-02-14T08:42:46;29.50;;;19.03;;
9128;SDS011;4599;50.906;6.786;2023-02-14T08:46:48;31.83;;;19.00;;
9128;SDS011;4599;50.906;6.786;2023-02-14T08:50:50;25.77;;;18.30;;
9128;SDS011;4599;50.906;6.786;2023-02-14T08:54:52;31.37;;;19.63;;
9128;SDS011;4599;50.906;6.786;2023-02-14T08:58:53;32.37;;;19.83;;
9128;SDS011;4599;50.906;6.786;2023-02-14T09:02:55;29.30;;;18.47;;
9128;SDS011;4599;50.906;6.786;2023-02-14T09:06:57;27.13;;;17.87;;
9128;SDS011;4599;50.906;6.786;2023-02-14T09:10:59;29.07;;;19.00;;
9128;SDS011;4599;50.906;6.786;2023-02-14T09:15:07;26.27;;;16.97;;
9128;SDS011;4599;50.906;6.786;2023-02-14T09:19:10;26.97;;;17.60;;
9128;SDS011;4599;50.906;6.786;2023-02-14T09:23:12;25.90;;;17.33;;
9128;SDS011;4599;50.906;6.786;2023-02-14T09:27:14;30.10;;;19.23;;
9128;SDS011;4599;50.906;6.786;2023-02-14T09:31:16;26.23;;;18.03;;
9128;SDS011;4599;50.906;6.786;2023-02-14T09:35:19;28.27;;;17.20;;
9128;SDS011;4599;50.906;6.786;2023-02-14T09:39:22;25.13;;;17.30;;
9128;SDS011;4599;50.906;6.786;2023-02-14T09:43:25;31.33;;;18.73;;
9128;SDS011;4599;50.906;6.786;2023-02-14T09:47:34;26.30;;;18.37;;
9128;SDS011;4599;50.906;6.786;2023-02-14T09:51:40;26.33;;;17.00;;
9128;SDS011;4599;50.906;6.786;2023-02-14T09:55:49;27.23;;;17.90;;
9128;SDS011;4599;50.906;6.786;2023-02-14T10:00:02;26.40;;;17.30;;
9128;SDS011;4599;50.906;6.786;2023-02-14T10:04:15;27.37;;;17.23;;
9128;SDS011;4599;50.906;6.786;2023-02-14T10:08:27;24.53;;;16.77;;
9128;SDS011;4599;50.906;6.786;2023-02-14T10:12:35;26.67;;;17.33;;
9128;SDS011;4599;50.906;6.786;2023-02-14T10:16:41;27.20;;;17.60;;
9128;SDS011;4599;50.906;6.786;2023-02-14T10:20:48;26.27;;;17.73;;
9128;SDS011;4599;50.906;6.786;2023-02-14T10:24:53;27.60;;;16.57;;
9128;SDS011;4599;50.906;6.786;2023-02-14T10:29:01;24.90;;;17.70;;
9128;SDS011;4599;50.906;6.786;2023-02-14T10:33:06;23.10;;;16.73;;
9128;SDS011;4599;50.906;6.786;2023-02-14T10:37:21;25.50;;;16.43;;
9128;SDS011;4599;50.906;6.786;2023-02-14T10:41:34;26.77;;;17.20;;
9128;SDS011;4599;50.906;6.786;2023-02-14T10:45:49;24.13;;;16.87;;
9128;SDS011;4599;50.906;6.786;2023-02-14T10:50:00;22.77;;;15.57;;
9128;SDS011;4599;50.906;6.786;2023-02-14T10:54:15;22.63;;;15.73;;
9128;SDS011;4599;50.906;6.786;2023-02-14T10:58:20;22.00;;;15.53;;
9128;SDS011;4599;50.906;6.786;2023-02-14T11:02:26;24.63;;;15.27;;
9128;SDS011;4599;50.906;6.786;2023-02-14T11:06:31;20.90;;;14.73;;
9128;SDS011;4599;50.906;6.786;2023-02-14T11:10:33;22.80;;;15.27;;
9128;SDS011;4599;50.906;6.786;2023-02-14T11:14:35;21.07;;;14.33;;
9128;SDS011;4599;50.906;6.786;2023-02-14T11:18:39;21.07;;;14.57;;
9128;SDS011;4599;50.906;6.786;2023-02-14T11:22:42;19.93;;;14.63;;
9128;SDS011;4599;50.906;6.786;2023-02-14T11:26:44;17.80;;;14.43;;
9128;SDS011;4599;50.906;6.786;2023-02-14T11:30:47;20.57;;;15.33;;
9128;SDS011;4599;50.906;6.786;2023-02-14T11:34:53;21.60;;;14.47;;
9128;SDS011;4599;50.906;6.786;2023-02-14T11:39:01;18.80;;;13.70;;
9128;SDS011;4599;50.906;6.786;2023-02-14T11:43:17;20.50;;;14.47;;
9128;SDS011;4599;50.906;6.786;2023-02-14T11:47:24;19.13;;;14.20;;
9128;SDS011;4599;50.906;6.786;2023-02-14T11:51:29;18.47;;;13.97;;
9128;SDS011;4599;50.906;6.786;2023-02-14T11:55:33;19.00;;;13.20;;
9128;SDS011;4599;50.906;6.786;2023-02-14T11:59:36;18.83;;;13.90;;
9128;SDS011;4599;50.906;6.786;2023-02-14T12:03:42;20.87;;;14.57;;
9128;SDS011;4599;50.906;6.786;2023-02-14T12:07:48;19.83;;;14.17;;
9128;SDS011;4599;50.906;6.786;2023-02-14T12:11:55;20.80;;;13.13;;
9128;SDS011;4599;50.906;6.786;2023-02-14T12:15:58;16.77;;;13.20;;
9128;SDS011;4599;50.906;6.786;2023-02-14T12:20:01;16.20;;;12.40;;
9128;SDS011;4599;50.906;6.786;2023-02-14T12:24:15;19.33;;;13.93;;
9128;SDS011;4599;50.906;6.786;2023-02-14T12:28:21;20.17;;;14.27;;
9128;SDS011;4599;50.906;6.786;2023-02-14T12:32:28;21.07;;;15.00;;
9128;SDS011;4599;50.906;6.786;2023-02-14T12:36:39;18.73;;;14.43;;
9128;SDS011;4599;50.906;6.786;2023-02-14T12:40:54;19.10;;;13.93;;
9128;SDS011;4599;50.906;6.786;2023-02-14T12:45:07;18.17;;;13.20;;
9128;SDS011;4599;50.906;6.786;2023-02-14T12:49:22;15.00;;;11.70;;
9128;SDS011;4599;50.906;6.786;2023-02-14T12:53:45;17.40;;;12.17;;
9128;SDS011;4599;50.906;6.786;2023-02-14T12:57:58;13.70;;;11.03;;
9128;SDS011;4599;50.906;6.786;2023-02-14T13:02:18;17.30;;;11.00;;
9128;SDS011;4599;50.906;6.786;2023-02-14T13:06:43;14.03;;;10.80;;
9128;SDS011;4599;50.906;6.786;2023-02-14T13:10:50;15.23;;;11.00;;
9128;SDS011;4599;50.906;6.786;2023-02-14T13:15:01;15.20;;;10.90;;
9128;SDS011;4599;50.906;6.786;2023-02-14T13:19:12;15.07;;;11.20;;
9128;SDS011;4599;50.906;6.786;2023-02-14T13:23:27;17.73;;;11.27;;
9128;SDS011;4599;50.906;6.786;2023-02-14T13:27:35;14.57;;;10.93;;
9128;SDS011;4599;50.906;6.786;2023-02-14T13:31:40;16.73;;;11.63;;
9128;SDS011;4599;50.906;6.786;2023-02-14T13:35:42;18.80;;;12.37;;
9128;SDS011;4599;50.906;6.786;2023-02-14T13:39:44;18.83;;;11.80;;
9128;SDS011;4599;50.906;6.786;2023-02-14T13:43:52;19.03;;;12.47;;
9128;SDS011;4599;50.906;6.786;2023-02-14T13:48:02;21.20;;;11.70;;
9128;SDS011;4599;50.906;6.786;2023-02-14T13:52:05;20.57;;;12.03;;
9128;SDS011;4599;50.906;6.786;2023-02-14T14:04:45;16.27;;;10.93;;
9128;SDS011;4599;50.906;6.786;2023-02-14T14:08:47;15.97;;;11.13;;
9128;SDS011;4599;50.906;6.786;2023-02-14T14:12:50;16.00;;;10.70;;
9128;SDS011;4599;50.906;6.786;2023-02-14T14:16:55;15.07;;;11.10;;
9128;SDS011;4599;50.906;6.786;2023-02-14T14:20:59;14.97;;;11.33;;
9128;SDS011;4599;50.906;6.786;2023-02-14T14:25:01;15.77;;;11.20;;
9128;SDS011;4599;50.906;6.786;2023-02-14T14:29:11;13.10;;;10.60;;
9128;SDS011;4599;50.906;6.786;2023-02-14T14:33:23;15.77;;;11.80;;
9128;SDS011;4599;50.906;6.786;2023-02-14T14:37:27;17.50;;;11.07;;
9128;SDS011;4599;50.906;6.786;2023-02-14T14:41:30;14.80;;;10.90;;
9128;SDS011;4599;50.906;6.786;2023-02-14T14:45:32;13.43;;;10.63;;
9128;SDS011;4599;50.906;6.786;2023-02-14T14:49:34;16.70;;;11.83;;
9128;SDS011;4599;50.906;6.786;2023-02-14T14:53:40;14.20;;;11.03;;
9128;SDS011;4599;50.906;6.786;2023-02-14T14:57:47;15.50;;;11.10;;
9128;SDS011;4599;50.906;6.786;2023-02-14T15:01:50;16.20;;;11.13;;
9128;SDS011;4599;50.906;6.786;2023-02-14T15:06:01;15.67;;;10.90;;
9128;SDS011;4599;50.906;6.786;2023-02-14T15:14:26;16.20;;;11.63;;
9128;SDS011;4599;50.906;6.786;2023-02-14T15:18:30;14.87;;;10.60;;
9128;SDS011;4599;50.906;6.786;2023-02-14T15:22:33;16.27;;;10.37;;
9128;SDS011;4599;50.906;6.786;2023-02-14T15:26:44;15.43;;;10.40;;
9128;SDS011;4599;50.906;6.786;2023-02-14T15:30:47;16.57;;;10.07;;
9128;SDS011;4599;50.906;6.786;2023-02-14T15:34:56;18.00;;;10.53;;
9128;SDS011;4599;50.906;6.786;2023-02-14T15:39:02;16.17;;;10.73;;
9128;SDS011;4599;50.906;6.786;2023-02-14T15:43:14;15.70;;;11.23;;
9128;SDS011;4599;50.906;6.786;2023-02-14T15:47:21;15.53;;;11.43;;
9128;SDS011;4599;50.906;6.786;2023-02-14T15:51:23;17.17;;;10.50;;
9128;SDS011;4599;50.906;6.786;2023-02-14T15:55:27;15.90;;;11.03;;
9128;SDS011;4599;50.906;6.786;2023-02-14T15:59:32;15.47;;;10.70;;
9128;SDS011;4599;50.906;6.786;2023-02-14T16:03:36;13.83;;;10.23;;
9128;SDS011;4599;50.906;6.786;2023-02-14T16:07:40;15.73;;;10.53;;
9128;SDS011;4599;50.906;6.786;2023-02-14T16:11:55;16.50;;;10.37;;
9128;SDS011;4599;50.906;6.786;2023-02-14T16:15:59;14.80;;;10.20;;
9128;SDS011;4599;50.906;6.786;2023-02-14T16:20:22;15.23;;;10.20;;
9128;SDS011;4599;50.906;6.786;2023-02-14T16:24:28;15.63;;;10.40;;
9128;SDS011;4599;50.906;6.786;2023-02-14T16:28:30;15.03;;;10.40;;
9128;SDS011;4599;50.906;6.786;2023-02-14T16:36:57;15.00;;;10.23;;
9128;SDS011;4599;50.906;6.786;2023-02-14T16:41:16;12.80;;;9.97;;
9128;SDS011;4599;50.906;6.786;2023-02-14T16:45:24;16.33;;;10.97;;
9128;SDS011;4599;50.906;6.786;2023-02-14T16:49:42;14.67;;;10.57;;
9128;SDS011;4599;50.906;6.786;2023-02-14T16:53:44;17.07;;;10.97;;
9128;SDS011;4599;50.906;6.786;2023-02-14T16:57:46;12.97;;;10.03;;
9128;SDS011;4599;50.906;6.786;2023-02-14T17:01:51;16.20;;;10.67;;
9128;SDS011;4599;50.906;6.786;2023-02-14T17:05:54;14.80;;;10.63;;
9128;SDS011;4599;50.906;6.786;2023-02-14T17:09:58;14.73;;;10.83;;
9128;SDS011;4599;50.906;6.786;2023-02-14T17:14:03;15.07;;;11.00;;
9128;SDS011;4599;50.906;6.786;2023-02-14T17:18:05;14.83;;;10.83;;
9128;SDS011;4599;50.906;6.786;2023-02-14T17:22:13;16.43;;;11.73;;
9128;SDS011;4599;50.906;6.786;2023-02-14T17:26:14;16.50;;;10.87;;
9128;SDS011;4599;50.906;6.786;2023-02-14T17:30:16;16.23;;;11.50;;
9128;SDS011;4599;50.906;6.786;2023-02-14T17:34:18;16.40;;;11.33;;
9128;SDS011;4599;50.906;6.786;2023-02-14T17:38:21;15.53;;;11.27;;
9128;SDS011;4599;50.906;6.786;2023-02-14T17:42:22;15.63;;;11.23;;
9128;SDS011;4599;50.906;6.786;2023-02-14T17:46:24;15.83;;;11.13;;
9128;SDS011;4599;50.906;6.786;2023-02-14T17:50:26;17.93;;;11.50;;
9128;SDS011;4599;50.906;6.786;2023-02-14T17:54:28;16.93;;;10.90;;
9128;SDS011;4599;50.906;6.786;2023-02-14T17:58:30;19.23;;;12.37;;
9128;SDS011;4599;50.906;6.786;2023-02-14T18:02:31;18.40;;;11.80;;
9128;SDS011;4599;50.906;6.786;2023-02-14T18:06:33;18.13;;;12.73;;
9128;SDS011;4599;50.906;6.786;2023-02-14T18:10:37;18.17;;;12.47;;
9128;SDS011;4599;50.906;6.786;2023-02-14T18:14:38;19.07;;;12.83;;
9128;SDS011;4599;50.906;6.786;2023-02-14T18:18:40;16.70;;;12.53;;
9128;SDS011;4599;50.906;6.786;2023-02-14T18:22:46;19.13;;;12.37;;
9128;SDS011;4599;50.906;6.786;2023-02-14T18:26:48;17.63;;;12.63;;
9128;SDS011;4599;50.906;6.786;2023-02-14T18:30:50;18.30;;;12.83;;
9128;SDS011;4599;50.906;6.786;2023-02-14T18:34:52;20.03;;;12.53;;
9128;SDS011;4599;50.906;6.786;2023-02-14T18:38:54;16.83;;;12.23;;
9128;SDS011;4599;50.906;6.786;2023-02-14T18:42:57;19.03;;;13.57;;
9128;SDS011;4599;50.906;6.786;2023-02-14T18:46:58;19.93;;;13.57;;
9128;SDS011;4599;50.906;6.786;2023-02-14T18:51:03;17.17;;;12.13;;
9128;SDS011;4599;50.906;6.786;2023-02-14T18:55:05;19.33;;;12.60;;
9128;SDS011;4599;50.906;6.786;2023-02-14T18:59:10;23.20;;;13.23;;
9128;SDS011;4599;50.906;6.786;2023-02-14T19:03:11;19.30;;;12.97;;
9128;SDS011;4599;50.906;6.786;2023-02-14T19:07:13;19.13;;;13.63;;
9128;SDS011;4599;50.906;6.786;2023-02-14T19:11:15;19.70;;;14.17;;
9128;SDS011;4599;50.906;6.786;2023-02-14T19:15:20;20.03;;;13.63;;
9128;SDS011;4599;50.906;6.786;2023-02-14T19:19:21;19.17;;;13.63;;
9128;SDS011;4599;50.906;6.786;2023-02-14T19:23:23;23.87;;;13.97;;
9128;SDS011;4599;50.906;6.786;2023-02-14T19:27:25;20.60;;;14.00;;
9128;SDS011;4599;50.906;6.786;2023-02-14T19:31:27;20.30;;;13.77;;
9128;SDS011;4599;50.906;6.786;2023-02-14T19:35:29;21.23;;;14.17;;
9128;SDS011;4599;50.906;6.786;2023-02-14T19:39:30;20.93;;;13.60;;
9128;SDS011;4599;50.906;6.786;2023-02-14T19:43:32;20.97;;;14.03;;
9128;SDS011;4599;50.906;6.786;2023-02-14T19:47:35;22.20;;;14.13;;
9128;SDS011;4599;50.906;6.786;2023-02-14T19:51:47;21.80;;;14.77;;
9128;SDS011;4599;50.906;6.786;2023-02-14T19:55:49;25.23;;;15.20;;
9128;SDS011;4599;50.906;6.786;2023-02-14T19:59:51;23.57;;;15.43;;
9128;SDS011;4599;50.906;6.786;2023-02-14T20:03:54;21.53;;;15.07;;
9128;SDS011;4599;50.906;6.786;2023-02-14T20:07:55;23.63;;;14.20;;
9128;SDS011;4599;50.906;6.786;2023-02-14T20:11:57;24.90;;;15.40;;
9128;SDS011;4599;50.906;6.786;2023-02-14T20:15:58;23.80;;;14.50;;
9128;SDS011;4599;50.906;6.786;2023-02-14T20:20:01;24.20;;;15.63;;
9128;SDS011;4599;50.906;6.786;2023-02-14T20:24:03;23.50;;;15.27;;
9128;SDS011;4599;50.906;6.786;2023-02-14T20:28:05;26.67;;;16.37;;
9128;SDS011;4599;50.906;6.786;2023-02-14T20:32:10;23.47;;;15.10;;
9128;SDS011;4599;50.906;6.786;2023-02-14T20:36:19;24.57;;;16.17;;
9128;SDS011;4599;50.906;6.786;2023-02-14T20:40:24;23.50;;;15.80;;
9128;SDS011;4599;50.906;6.786;2023-02-14T20:44:25;25.17;;;16.90;;
9128;SDS011;4599;50.906;6.786;2023-02-14T20:48:27;25.30;;;16.00;;
9128;SDS011;4599;50.906;6.786;2023-02-14T20:52:31;25.40;;;16.13;;
9128;SDS011;4599;50.906;6.786;2023-02-14T20:56:32;29.10;;;16.70;;
9128;SDS011;4599;50.906;6.786;2023-02-14T21:00:33;25.20;;;16.80;;
9128;SDS011;4599;50.906;6.786;2023-02-14T21:04:35;28.13;;;17.37;;
9128;SDS011;4599;50.906;6.786;2023-02-14T21:08:38;25.10;;;16.07;;
9128;SDS011;4599;50.906;6.786;2023-02-14T21:12:42;27.67;;;16.97;;
9128;SDS011;4599;50.906;6.786;2023-02-14T21:16:43;26.03;;;16.33;;
9128;SDS011;4599;50.906;6.786;2023-02-14T21:20:45;26.63;;;17.37;;
9128;SDS011;4599;50.906;6.786;2023-02-14T21:24:48;27.17;;;17.40;;
9128;SDS011;4599;50.906;6.786;2023-02-14T21:28:49;30.43;;;17.40;;
9128;SDS011;4599;50.906;6.786;2023-02-14T21:32:51;28.13;;;17.03;;
9128;SDS011;4599;50.906;6.786;2023-02-14T21:36:53;27.10;;;16.43;;
9128;SDS011;4599;50.906;6.786;2023-02-14T21:40:59;27.33;;;16.93;;
9128;SDS011;4599;50.906;6.786;2023-02-14T21:45:02;26.27;;;16.17;;
9128;SDS011;4599;50.906;6.786;2023-02-14T21:49:04;27.53;;;16.77;;
9128;SDS011;4599;50.906;6.786;2023-02-14T21:53:06;26.70;;;16.97;;
9128;SDS011;4599;50.906;6.786;2023-02-14T21:57:08;27.87;;;17.13;;
9128;SDS011;4599;50.906;6.786;2023-02-14T22:01:13;27.63;;;15.93;;
9128;SDS011;4599;50.906;6.786;2023-02-14T22:05:15;28.57;;;17.33;;
9128;SDS011;4599;50.906;6.786;2023-02-14T22:09:17;27.87;;;17.80;;
9128;SDS011;4599;50.906;6.786;2023-02-14T22:13:20;28.80;;;16.70;;
9128;SDS011;4599;50.906;6.786;2023-02-14T22:17:21;28.27;;;17.37;;
9128;SDS011;4599;50.906;6.786;2023-02-14T22:21:24;30.00;;;17.47;;
9128;SDS011;4599;50.906;6.786;2023-02-14T22:25:26;28.80;;;17.60;;
9128;SDS011;4599;50.906;6.786;2023-02-14T22:29:29;26.47;;;17.67;;
9128;SDS011;4599;50.906;6.786;2023-02-14T22:33:30;27.80;;;17.43;;
9128;SDS011;4599;50.906;6.786;2023-02-14T22:37:31;27.90;;;16.83;;
9128;SDS011;4599;50.906;6.786;2023-02-14T22:41:33;32.07;;;18.60;;
9128;SDS011;4599;50.906;6.786;2023-02-14T22:45:36;28.77;;;19.03;;
9128;SDS011;4599;50.906;6.786;2023-02-14T22:49:37;31.77;;;20.20;;
9128;SDS011;4599;50.906;6.786;2023-02-14T22:53:39;32.30;;;19.30;;
9128;SDS011;4599;50.906;6.786;2023-02-14T22:57:40;30.57;;;19.67;;
9128;SDS011;4599;50.906;6.786;2023-02-14T23:01:43;34.20;;;18.90;;
9128;SDS011;4599;50.906;6.786;2023-02-14T23:05:45;32.60;;;19.50;;
9128;SDS011;4599;50.906;6.786;2023-02-14T23:09:47;28.70;;;17.90;;
9128;SDS011;4599;50.906;6.786;2023-02-14T23:13:49;29.37;;;18.80;;
9128;SDS011;4599;50.906;6.786;2023-02-14T23:17:52;31.83;;;19.97;;
9128;SDS011;4599;50.906;6.786;2023-02-14T23:21:53;29.23;;;19.00;;
9128;SDS011;4599;50.906;6.786;2023-02-14T23:25:55;35.33;;;20.03;;
9128;SDS011;4599;50.906;6.786;2023-02-14T23:29:56;32.87;;;20.67;;
9128;SDS011;4599;50.906;6.786;2023-02-14T23:33:59;36.33;;;21.53;;
9128;SDS011;4599;50.906;6.786;2023-02-14T23:38:00;34.13;;;20.93;;
9128;SDS011;4599;50.906;6.786;2023-02-14T23:42:02;36.07;;;20.93;;
9128;SDS011;4599;50.906;6.786;2023-02-14T23:46:03;36.90;;;21.33;;
9128;SDS011;4599;50.906;6.786;2023-02-14T23:50:07;33.53;;;20.13;;
9128;SDS011;4599;50.906;6.786;2023-02-14T23:54:09;37.73;;;20.77;;
9128;SDS011;4599;50.906;6.786;2023-02-14T23:58:11;39.40;;;21.60;;
